sensor_id;sensor_type;location;lat;lon;timestamp;pressure;altitude;pressure_sealevel;temperature;humidity
19811;BME280;10065;49.632;8.346;2023-01-28T00:01:06;101445.59;;;6.14;70.41
19811;BME280;10065;49.632;8.346;2023-01-28T00:03:34;101446.16;;;6.19;70.20
19811;BME280;10065;49.632;8.346;2023-01-28T00:06:02;101443.25;;;6.09;70.47
19811;BME280;10065;49.632;8.346;2023-01-28T00:08:32;101449.72;;;6.18;70.51
19811;BME280;10065;49.632;8.346;2023-01-28T00:11:00;101444.44;;;6.18;69.91
19811;BME280;10065;49.632;8.346;2023-01-28T00:13:29;101440.97;;;6.17;70.11
19811;BME280;10065;49.632;8.346;2023-01-28T00:15:59;101444.56;;;6.02;70.04
19811;BME280;10065;49.632;8.346;2023-01-28T00:18:28;101442.13;;;5.99;70.39
19811;BME280;10065;49.632;8.346;2023-01-28T00:20:57;101440.44;;;5.98;70.60
19811;BME280;10065;49.632;8.346;2023-01-28T00:23:25;101441.53;;;6.08;70.76
19811;BME280;10065;49.632;8.346;2023-01-28T00:25:57;101438.56;;;6.14;70.18
19811;BME280;10065;49.632;8.346;2023-01-28T00:28:25;101441.53;;;6.08;69.55
19811;BME280;10065;49.632;8.346;2023-01-28T00:30:53;101433.84;;;5.91;69.97
19811;BME280;10065;49.632;8.346;2023-01-28T00:33:21;101438.91;;;5.80;70.79
19811;BME280;10065;49.632;8.346;2023-01-28T00:35:57;101431.88;;;5.80;71.22
19811;BME280;10065;49.632;8.346;2023-01-28T00:38:25;101432.91;;;5.92;70.96
19811;BME280;10065;49.632;8.346;2023-01-28T00:40:54;101430.66;;;6.00;70.54
19811;BME280;10065;49.632;8.346;2023-01-28T00:43:22;101426.16;;;6.02;70.34
19811;BME280;10065;49.632;8.346;2023-01-28T00:45:50;101425.75;;;6.08;70.16
19811;BME280;10065;49.632;8.346;2023-01-28T00:48:18;101430.16;;;6.08;69.42
19811;BME280;10065;49.632;8.346;2023-01-28T00:50:45;101424.66;;;5.98;70.29
19811;BME280;10065;49.632;8.346;2023-01-28T00:53:13;101434.03;;;6.02;70.18
19811;BME280;10065;49.632;8.346;2023-01-28T00:55:41;101430.75;;;5.98;70.55
19811;BME280;10065;49.632;8.346;2023-01-28T00:58:10;101439.41;;;6.00;70.76
19811;BME280;10065;49.632;8.346;2023-01-28T01:00:38;101428.38;;;6.08;70.58
19811;BME280;10065;49.632;8.346;2023-01-28T01:03:05;101437.69;;;6.14;70.32
19811;BME280;10065;49.632;8.346;2023-01-28T01:05:33;101428.66;;;6.18;70.16
19811;BME280;10065;49.632;8.346;2023-01-28T01:08:01;101434.00;;;6.16;69.85
19811;BME280;10065;49.632;8.346;2023-01-28T01:10:29;101429.44;;;6.06;70.08
19811;BME280;10065;49.632;8.346;2023-01-28T01:12:57;101428.28;;;6.10;70.18
19811;BME280;10065;49.632;8.346;2023-01-28T01:15:26;101432.97;;;6.19;69.88
19811;BME280;10065;49.632;8.346;2023-01-28T01:17:54;101447.94;;;6.18;70.10
19811;BME280;10065;49.632;8.346;2023-01-28T01:20:24;101437.22;;;6.21;70.02
19811;BME280;10065;49.632;8.346;2023-01-28T01:22:52;101435.13;;;6.26;69.72
19811;BME280;10065;49.632;8.346;2023-01-28T01:25:20;101438.34;;;6.31;69.45
19811;BME280;10065;49.632;8.346;2023-01-28T01:27:49;101445.31;;;6.32;69.31
19811;BME280;10065;49.632;8.346;2023-01-28T01:30:16;101452.44;;;6.30;69.17
19811;BME280;10065;49.632;8.346;2023-01-28T01:32:46;101449.22;;;6.25;69.19
19811;BME280;10065;49.632;8.346;2023-01-28T01:35:14;101446.59;;;6.25;69.28
19811;BME280;10065;49.632;8.346;2023-01-28T01:37:42;101431.56;;;6.27;69.06
19811;BME280;10065;49.632;8.346;2023-01-28T01:40:11;101444.81;;;6.26;68.91
19811;BME280;10065;49.632;8.346;2023-01-28T01:42:39;101444.44;;;6.18;68.97
19811;BME280;10065;49.632;8.346;2023-01-28T01:45:11;101445.88;;;6.09;69.07
19811;BME280;10065;49.632;8.346;2023-01-28T01:47:44;101452.09;;;6.08;69.22
19811;BME280;10065;49.632;8.346;2023-01-28T01:50:20;101450.88;;;6.14;69.43
19811;BME280;10065;49.632;8.346;2023-01-28T01:52:52;101453.41;;;6.15;69.33
19811;BME280;10065;49.632;8.346;2023-01-28T01:55:23;101458.88;;;6.12;68.92
19811;BME280;10065;49.632;8.346;2023-01-28T01:57:54;101453.69;;;6.11;68.62
19811;BME280;10065;49.632;8.346;2023-01-28T02:00:24;101456.88;;;6.01;69.04
19811;BME280;10065;49.632;8.346;2023-01-28T02:02:52;101458.50;;;6.04;69.18
19811;BME280;10065;49.632;8.346;2023-01-28T02:05:23;101458.28;;;6.07;68.99
19811;BME280;10065;49.632;8.346;2023-01-28T02:07:53;101458.69;;;6.01;68.89
19811;BME280;10065;49.632;8.346;2023-01-28T02:10:43;101455.75;;;5.91;68.86
19811;BME280;10065;49.632;8.346;2023-01-28T02:13:12;101449.84;;;5.88;69.52
19811;BME280;10065;49.632;8.346;2023-01-28T02:15:41;101456.69;;;5.90;69.29
19811;BME280;10065;49.632;8.346;2023-01-28T02:18:10;101466.19;;;5.93;69.07
19811;BME280;10065;49.632;8.346;2023-01-28T02:20:55;101457.47;;;5.92;68.97
19811;BME280;10065;49.632;8.346;2023-01-28T02:23:38;101464.72;;;5.89;69.10
19811;BME280;10065;49.632;8.346;2023-01-28T02:26:24;101461.66;;;5.81;68.85
19811;BME280;10065;49.632;8.346;2023-01-28T02:29:01;101472.63;;;5.73;68.83
19811;BME280;10065;49.632;8.346;2023-01-28T02:31:35;101468.59;;;5.67;69.58
19811;BME280;10065;49.632;8.346;2023-01-28T02:34:09;101470.47;;;5.65;69.60
19811;BME280;10065;49.632;8.346;2023-01-28T02:36:42;101466.44;;;5.74;69.79
19811;BME280;10065;49.632;8.346;2023-01-28T02:39:16;101467.75;;;5.81;69.51
19811;BME280;10065;49.632;8.346;2023-01-28T02:41:49;101472.75;;;5.86;69.10
19811;BME280;10065;49.632;8.346;2023-01-28T02:44:21;101468.44;;;5.85;68.65
19811;BME280;10065;49.632;8.346;2023-01-28T02:46:51;101471.25;;;5.82;68.32
19811;BME280;10065;49.632;8.346;2023-01-28T02:49:40;101475.28;;;5.73;68.49
19811;BME280;10065;49.632;8.346;2023-01-28T02:52:19;101470.50;;;5.80;68.52
19811;BME280;10065;49.632;8.346;2023-01-28T02:55:15;101472.00;;;5.70;68.59
19811;BME280;10065;49.632;8.346;2023-01-28T02:57:50;101469.53;;;5.66;68.97
19811;BME280;10065;49.632;8.346;2023-01-28T03:00:26;101473.69;;;5.71;68.88
19811;BME280;10065;49.632;8.346;2023-01-28T03:03:04;101469.84;;;5.76;69.11
19811;BME280;10065;49.632;8.346;2023-01-28T03:05:38;101476.50;;;5.82;68.64
19811;BME280;10065;49.632;8.346;2023-01-28T03:08:33;101478.88;;;5.86;68.42
19811;BME280;10065;49.632;8.346;2023-01-28T03:11:20;101474.16;;;5.77;68.30
19811;BME280;10065;49.632;8.346;2023-01-28T03:14:07;101473.50;;;5.74;68.75
19811;BME280;10065;49.632;8.346;2023-01-28T03:16:56;101477.44;;;5.66;68.38
19811;BME280;10065;49.632;8.346;2023-01-28T03:19:44;101486.09;;;5.68;68.76
19811;BME280;10065;49.632;8.346;2023-01-28T03:22:31;101476.97;;;5.74;68.69
19811;BME280;10065;49.632;8.346;2023-01-28T03:25:20;101486.47;;;5.77;68.45
19811;BME280;10065;49.632;8.346;2023-01-28T03:28:09;101480.75;;;5.84;68.04
19811;BME280;10065;49.632;8.346;2023-01-28T03:31:02;101484.31;;;5.83;68.01
19811;BME280;10065;49.632;8.346;2023-01-28T03:33:51;101475.31;;;5.87;67.91
19811;BME280;10065;49.632;8.346;2023-01-28T03:36:39;101489.91;;;5.93;67.72
19811;BME280;10065;49.632;8.346;2023-01-28T03:39:18;101491.59;;;5.94;67.64
19811;BME280;10065;49.632;8.346;2023-01-28T03:41:56;101488.88;;;5.95;67.51
19811;BME280;10065;49.632;8.346;2023-01-28T03:44:25;101492.34;;;5.96;67.47
19811;BME280;10065;49.632;8.346;2023-01-28T03:47:11;101499.09;;;6.00;67.37
19811;BME280;10065;49.632;8.346;2023-01-28T03:49:41;101503.53;;;5.99;67.25
19811;BME280;10065;49.632;8.346;2023-01-28T03:52:11;101501.56;;;5.89;67.54
19811;BME280;10065;49.632;8.346;2023-01-28T03:54:39;101504.34;;;5.86;68.13
19811;BME280;10065;49.632;8.346;2023-01-28T03:57:07;101509.47;;;5.89;67.74
19811;BME280;10065;49.632;8.346;2023-01-28T03:59:34;101506.88;;;5.87;68.24
19811;BME280;10065;49.632;8.346;2023-01-28T04:02:02;101509.94;;;5.95;68.06
19811;BME280;10065;49.632;8.346;2023-01-28T04:04:31;101509.09;;;5.95;67.98
19811;BME280;10065;49.632;8.346;2023-01-28T04:07:00;101510.97;;;5.93;68.19
19811;BME280;10065;49.632;8.346;2023-01-28T04:09:27;101514.34;;;5.95;68.39
19811;BME280;10065;49.632;8.346;2023-01-28T04:11:55;101503.16;;;5.91;68.29
19811;BME280;10065;49.632;8.346;2023-01-28T04:14:23;101504.00;;;5.92;68.25
19811;BME280;10065;49.632;8.346;2023-01-28T04:16:51;101506.22;;;5.84;68.33
19811;BME280;10065;49.632;8.346;2023-01-28T04:19:21;101506.69;;;5.76;68.54
19811;BME280;10065;49.632;8.346;2023-01-28T04:21:49;101503.59;;;5.70;68.76
19811;BME280;10065;49.632;8.346;2023-01-28T04:24:21;101501.22;;;5.65;68.33
19811;BME280;10065;49.632;8.346;2023-01-28T04:26:49;101499.03;;;5.57;69.22
19811;BME280;10065;49.632;8.346;2023-01-28T04:29:17;101497.25;;;5.58;69.23
19811;BME280;10065;49.632;8.346;2023-01-28T04:31:44;101501.09;;;5.52;68.91
19811;BME280;10065;49.632;8.346;2023-01-28T04:34:12;101502.50;;;5.44;69.35
19811;BME280;10065;49.632;8.346;2023-01-28T04:36:40;101505.78;;;5.47;69.77
19811;BME280;10065;49.632;8.346;2023-01-28T04:39:08;101505.78;;;5.47;69.40
19811;BME280;10065;49.632;8.346;2023-01-28T04:41:37;101509.00;;;5.52;69.27
19811;BME280;10065;49.632;8.346;2023-01-28T04:44:05;101504.31;;;5.57;69.16
19811;BME280;10065;49.632;8.346;2023-01-28T04:46:33;101508.06;;;5.53;68.98
19811;BME280;10065;49.632;8.346;2023-01-28T04:49:01;101506.38;;;5.52;69.04
19811;BME280;10065;49.632;8.346;2023-01-28T04:51:29;101514.72;;;5.45;69.21
19811;BME280;10065;49.632;8.346;2023-01-28T04:53:56;101515.91;;;5.39;69.38
19811;BME280;10065;49.632;8.346;2023-01-28T04:56:24;101510.19;;;5.47;69.28
19811;BME280;10065;49.632;8.346;2023-01-28T04:58:53;101504.63;;;5.37;69.52
19811;BME280;10065;49.632;8.346;2023-01-28T05:01:21;101512.03;;;5.30;70.16
19811;BME280;10065;49.632;8.346;2023-01-28T05:03:50;101509.63;;;5.42;69.64
19811;BME280;10065;49.632;8.346;2023-01-28T05:06:18;101518.50;;;5.25;70.02
19811;BME280;10065;49.632;8.346;2023-01-28T05:08:45;101514.81;;;4.98;71.33
19811;BME280;10065;49.632;8.346;2023-01-28T05:11:13;101518.03;;;5.03;71.68
19811;BME280;10065;49.632;8.346;2023-01-28T05:13:41;101521.75;;;5.14;71.33
19811;BME280;10065;49.632;8.346;2023-01-28T05:16:10;101522.59;;;5.15;71.00
19811;BME280;10065;49.632;8.346;2023-01-28T05:18:38;101525.06;;;5.18;71.23
19811;BME280;10065;49.632;8.346;2023-01-28T05:21:06;101528.09;;;5.26;70.78
19811;BME280;10065;49.632;8.346;2023-01-28T05:23:34;101530.72;;;5.26;70.83
19811;BME280;10065;49.632;8.346;2023-01-28T05:26:02;101531.38;;;5.29;70.68
19811;BME280;10065;49.632;8.346;2023-01-28T05:28:29;101531.28;;;5.31;70.85
19811;BME280;10065;49.632;8.346;2023-01-28T05:31:02;101534.50;;;5.36;70.48
19811;BME280;10065;49.632;8.346;2023-01-28T05:33:32;101532.94;;;5.48;70.13
19811;BME280;10065;49.632;8.346;2023-01-28T05:36:00;101540.72;;;5.35;70.08
19811;BME280;10065;49.632;8.346;2023-01-28T05:38:27;101539.19;;;5.31;70.58
19811;BME280;10065;49.632;8.346;2023-01-28T05:40:55;101547.84;;;5.33;70.15
19811;BME280;10065;49.632;8.346;2023-01-28T05:43:23;101560.91;;;5.35;70.37
19811;BME280;10065;49.632;8.346;2023-01-28T05:45:51;101553.25;;;5.30;70.60
19811;BME280;10065;49.632;8.346;2023-01-28T05:48:18;101561.75;;;5.19;70.96
19811;BME280;10065;49.632;8.346;2023-01-28T05:50:48;101561.69;;;5.21;70.76
19811;BME280;10065;49.632;8.346;2023-01-28T05:53:16;101558.38;;;5.17;70.83
19811;BME280;10065;49.632;8.346;2023-01-28T05:55:47;101558.91;;;5.08;71.17
19811;BME280;10065;49.632;8.346;2023-01-28T05:58:15;101557.88;;;5.11;71.68
19811;BME280;10065;49.632;8.346;2023-01-28T06:00:43;101568.06;;;5.17;71.39
19811;BME280;10065;49.632;8.346;2023-01-28T06:03:11;101565.91;;;5.23;71.23
19811;BME280;10065;49.632;8.346;2023-01-28T06:05:39;101571.09;;;5.25;70.71
19811;BME280;10065;49.632;8.346;2023-01-28T06:08:08;101581.28;;;5.15;70.79
19811;BME280;10065;49.632;8.346;2023-01-28T06:10:35;101578.91;;;5.11;71.08
19811;BME280;10065;49.632;8.346;2023-01-28T06:13:03;101581.78;;;5.22;71.30
19811;BME280;10065;49.632;8.346;2023-01-28T06:15:31;101585.00;;;5.27;70.84
19811;BME280;10065;49.632;8.346;2023-01-28T06:17:59;101588.22;;;5.32;70.42
19811;BME280;10065;49.632;8.346;2023-01-28T06:20:27;101588.78;;;5.37;70.39
19811;BME280;10065;49.632;8.346;2023-01-28T06:22:54;101594.16;;;5.36;70.19
19811;BME280;10065;49.632;8.346;2023-01-28T06:25:24;101593.13;;;5.38;69.95
19811;BME280;10065;49.632;8.346;2023-01-28T06:27:52;101590.50;;;5.38;70.20
19811;BME280;10065;49.632;8.346;2023-01-28T06:30:19;101597.84;;;5.47;69.68
19811;BME280;10065;49.632;8.346;2023-01-28T06:32:53;101610.84;;;5.50;69.04
19811;BME280;10065;49.632;8.346;2023-01-28T06:35:21;101601.00;;;5.38;69.38
19811;BME280;10065;49.632;8.346;2023-01-28T06:37:49;101608.75;;;5.41;69.19
19811;BME280;10065;49.632;8.346;2023-01-28T06:40:18;101617.56;;;5.40;69.04
19811;BME280;10065;49.632;8.346;2023-01-28T06:42:48;101620.97;;;5.42;68.90
19811;BME280;10065;49.632;8.346;2023-01-28T06:45:16;101616.28;;;5.47;68.72
19811;BME280;10065;49.632;8.346;2023-01-28T06:47:44;101621.28;;;5.52;68.76
19811;BME280;10065;49.632;8.346;2023-01-28T06:50:12;101628.06;;;5.56;68.63
19811;BME280;10065;49.632;8.346;2023-01-28T06:52:40;101621.69;;;5.60;68.17
19811;BME280;10065;49.632;8.346;2023-01-28T06:55:08;101631.94;;;5.64;67.95
19811;BME280;10065;49.632;8.346;2023-01-28T06:57:37;101629.09;;;5.53;67.80
19811;BME280;10065;49.632;8.346;2023-01-28T07:00:09;101631.97;;;5.49;67.93
19811;BME280;10065;49.632;8.346;2023-01-28T07:02:39;101631.03;;;5.50;67.93
19811;BME280;10065;49.632;8.346;2023-01-28T07:05:07;101627.66;;;5.48;67.91
19811;BME280;10065;49.632;8.346;2023-01-28T07:07:38;101634.69;;;5.47;68.00
19811;BME280;10065;49.632;8.346;2023-01-28T07:10:08;101632.25;;;5.44;67.86
19811;BME280;10065;49.632;8.346;2023-01-28T07:12:36;101638.94;;;5.50;67.93
19811;BME280;10065;49.632;8.346;2023-01-28T07:15:07;101638.66;;;5.54;67.23
19811;BME280;10065;49.632;8.346;2023-01-28T07:17:38;101640.19;;;5.58;67.67
19811;BME280;10065;49.632;8.346;2023-01-28T07:20:08;101636.47;;;5.62;67.38
19811;BME280;10065;49.632;8.346;2023-01-28T07:22:38;101640.28;;;5.57;67.51
19811;BME280;10065;49.632;8.346;2023-01-28T07:25:07;101641.66;;;5.48;66.99
19811;BME280;10065;49.632;8.346;2023-01-28T07:27:35;101649.97;;;5.41;66.85
19811;BME280;10065;49.632;8.346;2023-01-28T07:30:04;101639.28;;;5.28;67.05
19811;BME280;10065;49.632;8.346;2023-01-28T07:32:33;101638.00;;;5.19;67.29
19811;BME280;10065;49.632;8.346;2023-01-28T07:35:01;101641.84;;;5.14;67.86
19811;BME280;10065;49.632;8.346;2023-01-28T07:37:28;101636.34;;;5.18;67.61
19811;BME280;10065;49.632;8.346;2023-01-28T07:39:56;101642.34;;;5.20;67.63
19811;BME280;10065;49.632;8.346;2023-01-28T07:42:24;101648.97;;;5.27;67.72
19811;BME280;10065;49.632;8.346;2023-01-28T07:44:52;101651.91;;;5.37;67.38
19811;BME280;10065;49.632;8.346;2023-01-28T07:47:20;101643.88;;;5.40;66.86
19811;BME280;10065;49.632;8.346;2023-01-28T07:49:49;101649.47;;;5.34;66.65
19811;BME280;10065;49.632;8.346;2023-01-28T07:52:17;101649.66;;;5.31;67.06
19811;BME280;10065;49.632;8.346;2023-01-28T07:54:44;101649.28;;;5.37;66.89
19811;BME280;10065;49.632;8.346;2023-01-28T07:57:12;101663.53;;;5.49;66.79
19811;BME280;10065;49.632;8.346;2023-01-28T07:59:40;101649.09;;;5.56;66.27
19811;BME280;10065;49.632;8.346;2023-01-28T08:02:10;101653.88;;;5.49;66.32
19811;BME280;10065;49.632;8.346;2023-01-28T08:04:38;101660.75;;;5.52;66.07
19811;BME280;10065;49.632;8.346;2023-01-28T08:07:08;101668.28;;;5.58;66.10
19811;BME280;10065;49.632;8.346;2023-01-28T08:09:36;101658.63;;;5.58;66.04
19811;BME280;10065;49.632;8.346;2023-01-28T08:12:04;101671.94;;;5.55;65.86
19811;BME280;10065;49.632;8.346;2023-01-28T08:14:31;101675.59;;;5.53;65.80
19811;BME280;10065;49.632;8.346;2023-01-28T08:16:59;101674.75;;;5.52;65.96
19811;BME280;10065;49.632;8.346;2023-01-28T08:19:27;101674.56;;;5.55;66.08
19811;BME280;10065;49.632;8.346;2023-01-28T08:21:55;101678.81;;;5.58;65.88
19811;BME280;10065;49.632;8.346;2023-01-28T08:24:24;101672.19;;;5.66;65.58
19811;BME280;10065;49.632;8.346;2023-01-28T08:26:51;101677.09;;;5.73;65.17
19811;BME280;10065;49.632;8.346;2023-01-28T08:29:19;101685.41;;;5.65;64.58
19811;BME280;10065;49.632;8.346;2023-01-28T08:31:47;101678.72;;;5.59;65.13
19811;BME280;10065;49.632;8.346;2023-01-28T08:34:15;101682.13;;;5.61;64.58
19811;BME280;10065;49.632;8.346;2023-01-28T08:36:42;101685.38;;;5.51;65.01
19811;BME280;10065;49.632;8.346;2023-01-28T08:39:10;101680.59;;;5.57;65.30
19811;BME280;10065;49.632;8.346;2023-01-28T08:41:39;101687.13;;;5.66;65.05
19811;BME280;10065;49.632;8.346;2023-01-28T08:44:07;101679.38;;;5.79;64.14
19811;BME280;10065;49.632;8.346;2023-01-28T08:46:35;101680.84;;;5.68;63.96
19811;BME280;10065;49.632;8.346;2023-01-28T08:49:03;101681.53;;;5.56;64.80
19811;BME280;10065;49.632;8.346;2023-01-28T08:51:31;101686.13;;;5.53;64.95
19811;BME280;10065;49.632;8.346;2023-01-28T08:53:59;101676.19;;;5.58;64.86
19811;BME280;10065;49.632;8.346;2023-01-28T08:56:27;101688.13;;;5.63;65.10
19811;BME280;10065;49.632;8.346;2023-01-28T08:58:57;101682.28;;;5.58;64.51
19811;BME280;10065;49.632;8.346;2023-01-28T09:01:25;101678.78;;;5.74;64.80
19811;BME280;10065;49.632;8.346;2023-01-28T09:03:54;101682.25;;;5.90;64.39
19811;BME280;10065;49.632;8.346;2023-01-28T09:06:22;101675.22;;;5.90;63.68
19811;BME280;10065;49.632;8.346;2023-01-28T09:08:50;101677.44;;;5.98;63.98
19811;BME280;10065;49.632;8.346;2023-01-28T09:11:18;101681.53;;;5.88;63.53
19811;BME280;10065;49.632;8.346;2023-01-28T09:13:45;101677.00;;;5.90;64.19
19811;BME280;10065;49.632;8.346;2023-01-28T09:16:15;101694.16;;;5.97;63.74
19811;BME280;10065;49.632;8.346;2023-01-28T09:18:42;101690.03;;;6.07;62.94
19811;BME280;10065;49.632;8.346;2023-01-28T09:21:10;101688.06;;;6.11;62.87
19811;BME280;10065;49.632;8.346;2023-01-28T09:23:38;101702.22;;;6.24;62.75
19811;BME280;10065;49.632;8.346;2023-01-28T09:26:07;101696.97;;;6.38;61.89
19811;BME280;10065;49.632;8.346;2023-01-28T09:28:35;101700.06;;;6.30;62.05
19811;BME280;10065;49.632;8.346;2023-01-28T09:31:06;101704.31;;;6.33;62.16
19811;BME280;10065;49.632;8.346;2023-01-28T09:33:36;101716.06;;;6.27;62.04
19811;BME280;10065;49.632;8.346;2023-01-28T09:36:06;101712.47;;;6.28;62.07
19811;BME280;10065;49.632;8.346;2023-01-28T09:38:34;101714.75;;;6.34;61.67
19811;BME280;10065;49.632;8.346;2023-01-28T09:41:16;101712.72;;;6.39;61.63
19811;BME280;10065;49.632;8.346;2023-01-28T09:46:37;101722.47;;;6.37;61.38
19811;BME280;10065;49.632;8.346;2023-01-28T09:49:19;101714.28;;;6.42;61.26
19811;BME280;10065;49.632;8.346;2023-01-28T09:51:50;101724.25;;;6.37;61.17
19811;BME280;10065;49.632;8.346;2023-01-28T09:54:36;101717.38;;;6.34;61.22
19811;BME280;10065;49.632;8.346;2023-01-28T09:57:11;101718.22;;;6.35;61.19
19811;BME280;10065;49.632;8.346;2023-01-28T09:59:40;101715.03;;;6.44;61.41
19811;BME280;10065;49.632;8.346;2023-01-28T10:02:26;101721.63;;;6.37;60.37
19811;BME280;10065;49.632;8.346;2023-01-28T10:05:09;101714.88;;;6.17;60.47
19811;BME280;10065;49.632;8.346;2023-01-28T10:07:48;101716.56;;;6.04;61.23
19811;BME280;10065;49.632;8.346;2023-01-28T10:10:25;101718.75;;;6.12;61.75
19811;BME280;10065;49.632;8.346;2023-01-28T10:13:04;101719.00;;;6.07;60.69
19811;BME280;10065;49.632;8.346;2023-01-28T10:15:53;101728.19;;;6.00;60.84
19811;BME280;10065;49.632;8.346;2023-01-28T10:18:33;101733.66;;;5.97;61.22
19811;BME280;10065;49.632;8.346;2023-01-28T10:21:09;101725.16;;;5.92;61.69
19811;BME280;10065;49.632;8.346;2023-01-28T10:23:45;101715.97;;;5.99;60.57
19811;BME280;10065;49.632;8.346;2023-01-28T10:26:22;101732.88;;;5.95;60.80
19811;BME280;10065;49.632;8.346;2023-01-28T10:28:53;101736.38;;;5.95;60.55
19811;BME280;10065;49.632;8.346;2023-01-28T10:31:29;101736.44;;;5.94;60.39
19811;BME280;10065;49.632;8.346;2023-01-28T10:33:58;101737.03;;;5.83;60.83
19811;BME280;10065;49.632;8.346;2023-01-28T10:36:28;101734.75;;;5.93;60.95
19811;BME280;10065;49.632;8.346;2023-01-28T10:38:56;101745.53;;;6.04;60.76
19811;BME280;10065;49.632;8.346;2023-01-28T10:41:24;101738.47;;;6.04;60.47
19811;BME280;10065;49.632;8.346;2023-01-28T10:43:52;101747.38;;;6.02;59.83
19811;BME280;10065;49.632;8.346;2023-01-28T10:46:23;101746.69;;;5.98;60.10
19811;BME280;10065;49.632;8.346;2023-01-28T10:48:57;101748.41;;;5.99;60.42
19811;BME280;10065;49.632;8.346;2023-01-28T10:51:32;101741.88;;;6.07;60.52
19811;BME280;10065;49.632;8.346;2023-01-28T10:54:00;101745.16;;;6.10;60.07
19811;BME280;10065;49.632;8.346;2023-01-28T10:56:30;101749.13;;;6.17;59.80
19811;BME280;10065;49.632;8.346;2023-01-28T10:59:01;101746.50;;;6.17;59.00
19811;BME280;10065;49.632;8.346;2023-01-28T11:01:41;101743.81;;;6.03;59.15
19811;BME280;10065;49.632;8.346;2023-01-28T11:04:16;101745.88;;;5.98;60.15
19811;BME280;10065;49.632;8.346;2023-01-28T11:06:59;101754.34;;;6.03;59.61
19811;BME280;10065;49.632;8.346;2023-01-28T11:09:28;101754.34;;;6.03;59.73
19811;BME280;10065;49.632;8.346;2023-01-28T11:11:57;101754.59;;;6.14;60.20
19811;BME280;10065;49.632;8.346;2023-01-28T11:14:26;101743.13;;;6.15;59.57
19811;BME280;10065;49.632;8.346;2023-01-28T11:16:55;101751.75;;;6.17;59.49
19811;BME280;10065;49.632;8.346;2023-01-28T11:19:30;101752.91;;;6.13;59.55
19811;BME280;10065;49.632;8.346;2023-01-28T11:22:02;101761.13;;;6.23;59.49
19811;BME280;10065;49.632;8.346;2023-01-28T11:24:31;101750.66;;;6.21;59.50
19811;BME280;10065;49.632;8.346;2023-01-28T11:27:11;101757.19;;;6.30;58.69
19811;BME280;10065;49.632;8.346;2023-01-28T11:29:39;101757.09;;;6.31;58.74
19811;BME280;10065;49.632;8.346;2023-01-28T11:32:16;101740.69;;;6.26;58.30
19811;BME280;10065;49.632;8.346;2023-01-28T11:34:49;101742.41;;;6.27;58.18
19811;BME280;10065;49.632;8.346;2023-01-28T11:37:22;101747.88;;;6.09;58.28
19811;BME280;10065;49.632;8.346;2023-01-28T11:40:00;101744.84;;;6.00;58.78
19811;BME280;10065;49.632;8.346;2023-01-28T11:42:29;101744.59;;;6.05;59.38
19811;BME280;10065;49.632;8.346;2023-01-28T11:44:57;101744.31;;;6.10;58.95
19811;BME280;10065;49.632;8.346;2023-01-28T11:47:40;101741.91;;;6.21;58.98
19811;BME280;10065;49.632;8.346;2023-01-28T11:50:21;101740.34;;;6.32;58.56
19811;BME280;10065;49.632;8.346;2023-01-28T11:53:05;101725.59;;;6.44;58.12
19811;BME280;10065;49.632;8.346;2023-01-28T11:55:48;101729.91;;;6.31;58.45
19811;BME280;10065;49.632;8.346;2023-01-28T11:58:22;101734.13;;;6.33;58.60
19811;BME280;10065;49.632;8.346;2023-01-28T12:01:00;101726.34;;;6.32;58.04
19811;BME280;10065;49.632;8.346;2023-01-28T12:03:43;101728.44;;;6.41;58.18
19811;BME280;10065;49.632;8.346;2023-01-28T12:06:35;101723.25;;;6.39;57.89
19811;BME280;10065;49.632;8.346;2023-01-28T12:09:14;101722.63;;;6.50;58.32
19811;BME280;10065;49.632;8.346;2023-01-28T12:11:56;101720.66;;;6.68;58.40
19811;BME280;10065;49.632;8.346;2023-01-28T12:14:56;101723.38;;;6.80;57.68
19811;BME280;10065;49.632;8.346;2023-01-28T12:17:34;101719.34;;;6.89;56.93
19811;BME280;10065;49.632;8.346;2023-01-28T12:20:14;101718.69;;;6.86;57.04
19811;BME280;10065;49.632;8.346;2023-01-28T12:26:02;101720.47;;;6.99;57.10
19811;BME280;10065;49.632;8.346;2023-01-28T12:28:41;101725.56;;;7.02;56.88
19811;BME280;10065;49.632;8.346;2023-01-28T12:31:32;101714.63;;;6.94;56.57
19811;BME280;10065;49.632;8.346;2023-01-28T12:34:57;101712.00;;;6.94;57.00
19811;BME280;10065;49.632;8.346;2023-01-28T12:37:39;101710.47;;;6.90;56.94
19811;BME280;10065;49.632;8.346;2023-01-28T12:40:20;101712.94;;;6.79;56.83
19811;BME280;10065;49.632;8.346;2023-01-28T12:42:57;101715.84;;;6.74;57.27
19811;BME280;10065;49.632;8.346;2023-01-28T12:45:32;101710.66;;;6.73;57.25
19811;BME280;10065;49.632;8.346;2023-01-28T12:48:07;101709.72;;;6.74;57.64
19811;BME280;10065;49.632;8.346;2023-01-28T12:50:40;101707.19;;;6.72;57.45
19811;BME280;10065;49.632;8.346;2023-01-28T12:53:19;101707.66;;;6.79;57.76
19811;BME280;10065;49.632;8.346;2023-01-28T12:55:54;101709.16;;;6.83;57.56
19811;BME280;10065;49.632;8.346;2023-01-28T12:58:34;101703.13;;;6.81;57.62
19811;BME280;10065;49.632;8.346;2023-01-28T13:01:07;101704.16;;;6.78;57.86
19811;BME280;10065;49.632;8.346;2023-01-28T13:03:40;101705.31;;;6.74;57.64
19811;BME280;10065;49.632;8.346;2023-01-28T13:06:13;101702.09;;;6.69;57.75
19811;BME280;10065;49.632;8.346;2023-01-28T13:08:43;101705.03;;;6.65;58.08
19811;BME280;10065;49.632;8.346;2023-01-28T13:11:14;101703.50;;;6.61;58.09
19811;BME280;10065;49.632;8.346;2023-01-28T13:13:45;101706.03;;;6.62;57.95
19811;BME280;10065;49.632;8.346;2023-01-28T13:16:13;101707.81;;;6.62;57.79
19811;BME280;10065;49.632;8.346;2023-01-28T13:18:44;101702.16;;;6.54;57.89
19811;BME280;10065;49.632;8.346;2023-01-28T13:21:16;101703.50;;;6.47;57.75
19811;BME280;10065;49.632;8.346;2023-01-28T13:23:45;101703.47;;;6.32;58.50
19811;BME280;10065;49.632;8.346;2023-01-28T13:26:29;101715.34;;;6.39;59.15
19811;BME280;10065;49.632;8.346;2023-01-28T13:29:17;101719.28;;;6.32;58.15
19811;BME280;10065;49.632;8.346;2023-01-28T13:31:47;101715.69;;;6.33;58.21